Time;durP1;ratioP1;P1;durP2;ratioP2;P2;SDS_P1;SDS_P2;PMS_P1;PMS_P2;Temp;Humidity;BMP_temperature;BMP_pressure;BME280_temperature;BME280_humidity;BME280_pressure;Samples;Min_cycle;Max_cycle;Signal;HPM_P1;HPM_P2
2022/12/05 00:00:53;;;;;;;56.35;17.15;;;2.30;99.90;;;;;;5050706;28;20730;-66
2022/12/05 00:03:19;;;;;;;57.60;17.33;;;2.30;99.90;;;;;;5049020;28;20064;-69
2022/12/05 00:05:45;;;;;;;53.40;17.73;;;2.30;99.90;;;;;;5036868;28;20540;-67
2022/12/05 00:08:11;;;;;;;59.40;18.00;;;2.30;99.90;;;;;;5031050;28;20029;-68
2022/12/05 00:10:38;;;;;;;63.10;17.75;;;2.20;99.90;;;;;;5031161;28;20064;-67
2022/12/05 00:13:04;;;;;;;57.65;17.38;;;2.20;99.90;;;;;;5042284;28;20049;-67
2022/12/05 00:15:30;;;;;;;55.40;17.98;;;2.20;99.90;;;;;;5037327;28;20807;-67
2022/12/05 00:17:55;;;;;;;57.95;18.67;;;2.20;99.90;;;;;;5045698;28;20052;-66
2022/12/05 00:20:21;;;;;;;61.40;18.33;;;2.20;99.90;;;;;;5043311;28;20036;-68
2022/12/05 00:22:47;;;;;;;62.53;18.73;;;2.20;99.90;;;;;;5038435;28;20032;-68
2022/12/05 00:25:12;;;;;;;58.17;18.15;;;2.20;99.90;;;;;;5030167;28;20037;-68
2022/12/05 00:27:38;;;;;;;62.10;17.85;;;2.20;99.90;;;;;;5028883;28;20378;-66
2022/12/05 00:30:05;;;;;;;56.35;17.20;;;2.20;99.90;;;;;;5042268;28;20178;-67
2022/12/05 00:32:31;;;;;;;69.60;18.80;;;2.20;99.90;;;;;;5038081;28;20927;-67
2022/12/05 00:34:56;;;;;;;55.28;17.30;;;2.20;99.90;;;;;;5039163;28;20033;-67
2022/12/05 00:37:22;;;;;;;54.75;16.65;;;2.20;99.90;;;;;;5040599;28;20501;-67
2022/12/05 00:39:48;;;;;;;47.90;16.85;;;2.20;99.90;;;;;;5029692;28;20029;-67
2022/12/05 00:42:14;;;;;;;54.40;16.58;;;2.30;99.90;;;;;;5037994;28;20727;-67
2022/12/05 00:44:39;;;;;;;54.40;17.48;;;2.30;99.90;;;;;;5037679;28;20037;-68
2022/12/05 00:47:05;;;;;;;53.75;16.83;;;2.20;99.90;;;;;;5015380;28;20025;-67
2022/12/05 00:49:31;;;;;;;50.85;15.43;;;2.30;99.90;;;;;;5042586;28;20035;-68
2022/12/05 00:51:56;;;;;;;51.92;15.75;;;2.30;99.90;;;;;;5044766;28;20062;-68
2022/12/05 00:54:22;;;;;;;47.70;16.02;;;2.20;99.90;;;;;;5031220;28;20107;-68
2022/12/05 00:56:47;;;;;;;41.20;14.25;;;2.20;99.90;;;;;;5025039;28;20492;-68
2022/12/05 00:59:16;;;;;;;43.60;14.77;;;2.10;99.90;;;;;;5029900;28;20037;-66
2022/12/05 01:01:43;;;;;;;50.78;15.77;;;2.10;99.90;;;;;;5033026;28;20083;-66
2022/12/05 01:04:15;;;;;;;47.72;15.30;;;2.00;99.90;;;;;;5028720;28;20037;-69
2022/12/05 01:06:41;;;;;;;51.35;16.60;;;2.10;99.90;;;;;;5040034;28;20040;-68
2022/12/05 01:09:09;;;;;;;47.58;15.68;;;2.10;99.90;;;;;;5047820;28;20037;-67
2022/12/05 01:11:35;;;;;;;43.67;14.00;;;2.00;99.90;;;;;;5044039;28;20079;-67
2022/12/05 01:14:01;;;;;;;48.60;15.32;;;2.00;99.90;;;;;;5024797;28;20050;-67
2022/12/05 01:16:30;;;;;;;49.17;16.10;;;1.90;99.90;;;;;;5026566;28;20037;-67
2022/12/05 01:18:57;;;;;;;47.50;15.80;;;1.80;99.90;;;;;;5047979;28;20037;-66
2022/12/05 01:21:22;;;;;;;51.63;15.27;;;1.80;99.90;;;;;;5046964;28;20032;-68
2022/12/05 01:23:55;;;;;;;50.75;15.75;;;1.80;99.90;;;;;;5063528;28;20418;-67
2022/12/05 01:26:22;;;;;;;47.00;14.70;;;1.80;99.90;;;;;;5064186;28;20056;-68
2022/12/05 01:28:48;;;;;;;48.70;15.43;;;1.80;99.90;;;;;;5053252;28;20041;-66
2022/12/05 01:31:29;;;;;;;55.67;16.17;;;1.70;99.90;;;;;;5065393;28;20032;-69
2022/12/05 01:33:57;;;;;;;56.53;16.23;;;1.70;99.90;;;;;;5034290;28;20041;-68
2022/12/05 01:36:23;;;;;;;59.67;16.50;;;1.70;99.90;;;;;;5029952;28;20041;-68
2022/12/05 01:38:49;;;;;;;60.88;17.52;;;1.70;99.90;;;;;;5048001;28;20039;-68
2022/12/05 01:41:24;;;;;;;52.60;17.10;;;1.70;99.90;;;;;;5043954;28;20083;-67
2022/12/05 01:44:11;;;;;;;54.90;17.55;;;1.70;99.90;;;;;;5044587;28;20038;-67
2022/12/05 01:46:48;;;;;;;58.58;16.65;;;1.70;99.90;;;;;;5042767;28;20025;-66
2022/12/05 01:49:44;;;;;;;56.17;16.80;;;1.70;99.90;;;;;;5064316;28;20039;-68
2022/12/05 01:52:20;;;;;;;54.55;16.65;;;1.70;99.90;;;;;;5042344;28;20044;-68
2022/12/05 01:54:49;;;;;;;54.85;17.33;;;1.70;99.90;;;;;;5049990;28;20028;-68
2022/12/05 01:57:15;;;;;;;55.67;16.60;;;1.80;99.90;;;;;;5048604;28;20079;-67
2022/12/05 01:59:48;;;;;;;50.08;16.75;;;1.70;99.90;;;;;;5047914;28;20025;-68
2022/12/05 02:02:14;;;;;;;49.90;16.10;;;1.80;99.90;;;;;;5059032;28;20438;-68
2022/12/05 02:04:59;;;;;;;47.85;16.75;;;1.80;99.90;;;;;;5050275;28;20056;-67
2022/12/05 02:07:25;;;;;;;60.67;17.98;;;1.80;99.90;;;;;;5046635;28;20386;-68
2022/12/05 02:09:51;;;;;;;54.42;16.73;;;1.80;99.90;;;;;;5061472;28;20026;-66
2022/12/05 02:12:18;;;;;;;51.47;16.70;;;1.80;99.90;;;;;;5049305;28;20029;-68
2022/12/05 02:15:06;;;;;;;48.47;16.15;;;1.80;99.90;;;;;;5056907;28;20068;-68
2022/12/05 02:17:50;;;;;;;49.30;15.93;;;1.80;99.90;;;;;;5039023;28;20038;-68
2022/12/05 02:20:28;;;;;;;48.30;16.15;;;1.80;99.90;;;;;;5050652;28;20041;-69
2022/12/05 02:23:27;;;;;;;46.63;15.52;;;1.80;99.90;;;;;;5058050;28;20064;-68
2022/12/05 02:26:22;;;;;;;50.40;16.23;;;1.80;99.90;;;;;;5043557;28;20363;-68
2022/12/05 02:28:59;;;;;;;46.70;16.27;;;1.90;99.90;;;;;;5026854;28;20657;-67
2022/12/05 02:31:37;;;;;;;41.30;14.80;;;1.90;99.90;;;;;;5057194;28;20048;-68
2022/12/05 02:34:28;;;;;;;46.75;15.38;;;1.90;99.90;;;;;;5051910;28;20033;-67
2022/12/05 02:37:04;;;;;;;40.38;13.90;;;1.80;99.90;;;;;;5048546;28;20057;-67
2022/12/05 02:39:53;;;;;;;40.20;14.25;;;1.90;99.90;;;;;;5040672;28;20044;-67
2022/12/05 02:42:48;;;;;;;41.40;13.77;;;1.90;99.90;;;;;;5045778;28;20520;-68
2022/12/05 02:45:16;;;;;;;41.92;14.27;;;1.90;99.90;;;;;;5033084;28;20045;-68
2022/12/05 02:47:50;;;;;;;42.63;14.77;;;1.90;99.90;;;;;;5029694;28;20025;-68
2022/12/05 02:50:21;;;;;;;43.92;14.27;;;1.80;99.90;;;;;;5021005;28;20107;-68
2022/12/05 02:52:49;;;;;;;42.38;15.25;;;1.80;99.90;;;;;;5048787;28;20056;-68
2022/12/05 02:55:17;;;;;;;41.92;15.30;;;1.80;99.90;;;;;;5031388;28;20052;-67
2022/12/05 02:57:47;;;;;;;44.30;15.75;;;1.80;99.90;;;;;;5029539;28;20037;-68
2022/12/05 03:00:13;;;;;;;30.70;11.02;;;1.80;99.90;;;;;;5027877;28;20038;-67
2022/12/05 03:02:40;;;;;;;38.80;14.45;;;1.80;99.90;;;;;;5034754;28;20636;-69
2022/12/05 03:05:36;;;;;;;41.03;13.50;;;1.80;99.90;;;;;;5049142;28;20525;-68
2022/12/05 03:08:05;;;;;;;40.17;13.73;;;1.90;99.90;;;;;;5028731;28;20059;-68
2022/12/05 03:10:33;;;;;;;35.22;12.70;;;1.90;99.90;;;;;;5038572;28;20033;-66
2022/12/05 03:13:14;;;;;;;35.00;12.52;;;1.90;99.90;;;;;;5034510;28;20630;-68
2022/12/05 03:15:45;;;;;;;41.17;13.23;;;2.00;99.90;;;;;;5034643;28;20040;-67
2022/12/05 03:18:27;;;;;;;34.03;12.05;;;2.00;99.90;;;;;;5042609;28;20053;-66
2022/12/05 03:21:16;;;;;;;32.03;11.55;;;2.00;99.90;;;;;;5025202;28;20026;-68
2022/12/05 03:23:49;;;;;;;30.20;11.30;;;2.10;99.90;;;;;;5024563;28;20057;-69
2022/12/05 03:26:43;;;;;;;34.60;12.77;;;2.10;99.90;;;;;;5026843;28;20026;-68
2022/12/05 03:29:33;;;;;;;34.45;11.30;;;2.10;99.90;;;;;;5034182;28;20160;-68
2022/12/05 03:32:05;;;;;;;30.80;11.10;;;2.10;99.90;;;;;;5049676;28;20049;-68
2022/12/05 03:35:01;;;;;;;35.40;11.98;;;2.10;99.90;;;;;;5028235;28;20029;-68
2022/12/05 03:38:07;;;;;;;35.63;11.57;;;2.10;99.90;;;;;;5029306;28;20033;-68
2022/12/05 03:40:51;;;;;;;37.17;12.35;;;2.10;99.90;;;;;;5021098;28;20047;-68
2022/12/05 03:43:43;;;;;;;32.88;11.57;;;2.10;99.90;;;;;;5034972;28;20129;-68
2022/12/05 03:46:16;;;;;;;38.00;12.07;;;2.10;99.90;;;;;;5038550;28;20517;-68
2022/12/05 03:49:03;;;;;;;38.05;13.10;;;2.20;99.90;;;;;;5034172;28;20034;-67
2022/12/05 03:51:36;;;;;;;36.75;12.63;;;2.10;99.90;;;;;;5041836;28;20059;-67
2022/12/05 03:54:23;;;;;;;33.92;12.57;;;2.10;99.90;;;;;;5033169;28;20063;-68
2022/12/05 03:56:55;;;;;;;32.65;12.20;;;2.10;99.90;;;;;;5010265;28;20125;-67
2022/12/05 03:59:39;;;;;;;37.22;12.73;;;2.10;99.90;;;;;;5029138;28;20092;-69
2022/12/05 04:02:14;;;;;;;38.95;12.07;;;2.20;99.90;;;;;;5027064;28;20496;-67
2022/12/05 04:05:12;;;;;;;36.70;12.65;;;2.20;99.90;;;;;;5027971;28;20099;-67
2022/12/05 04:07:39;;;;;;;32.25;10.88;;;2.20;99.90;;;;;;5026379;28;20591;-66
2022/12/05 04:10:10;;;;;;;38.58;12.88;;;2.20;99.90;;;;;;5028795;28;20071;-67
2022/12/05 04:12:38;;;;;;;31.42;11.60;;;2.20;99.90;;;;;;5027444;28;20038;-67
2022/12/05 04:15:21;;;;;;;32.90;11.60;;;2.20;99.90;;;;;;5029337;28;20035;-68
2022/12/05 04:17:53;;;;;;;29.35;10.55;;;2.20;99.90;;;;;;5029174;28;20040;-66
2022/12/05 04:23:24;;;;;;;27.88;11.13;;;2.30;99.90;;;;;;5008721;28;20139;-69
2022/12/05 04:26:08;;;;;;;32.22;11.10;;;2.30;99.90;;;;;;5044809;28;20091;-67
2022/12/05 04:28:48;;;;;;;35.40;11.82;;;2.30;99.90;;;;;;5029027;28;20033;-67
2022/12/05 04:31:24;;;;;;;31.38;10.80;;;2.30;99.90;;;;;;5029038;28;20040;-67
2022/12/05 04:33:59;;;;;;;31.65;11.18;;;2.30;99.90;;;;;;5028284;28;20045;-67
2022/12/05 04:36:30;;;;;;;36.13;11.10;;;2.30;99.90;;;;;;5027396;28;20528;-69
2022/12/05 04:39:08;;;;;;;36.33;11.93;;;2.40;99.90;;;;;;5030657;28;20029;-67
2022/12/05 04:41:52;;;;;;;30.90;11.00;;;2.40;99.90;;;;;;5045430;28;20111;-68
2022/12/05 04:44:22;;;;;;;28.50;10.82;;;2.40;99.90;;;;;;5028138;28;20105;-67
2022/12/05 04:46:52;;;;;;;33.03;11.52;;;2.40;99.90;;;;;;5027889;28;20527;-67
2022/12/05 04:49:21;;;;;;;35.47;11.27;;;2.40;99.90;;;;;;5027805;28;20512;-67
2022/12/05 04:51:51;;;;;;;32.67;11.27;;;2.50;99.90;;;;;;5026673;28;20454;-67
2022/12/05 04:54:21;;;;;;;29.15;11.00;;;2.50;99.90;;;;;;5022750;28;20433;-67
2022/12/05 04:56:49;;;;;;;29.83;11.00;;;2.60;99.90;;;;;;5006821;28;20853;-67
2022/12/05 04:59:15;;;;;;;29.42;11.50;;;2.60;99.90;;;;;;5020907;28;20037;-68
2022/12/05 05:02:03;;;;;;;30.30;12.00;;;2.60;99.90;;;;;;5028027;28;20062;-67
2022/12/05 05:05:02;;;;;;;32.38;11.40;;;2.60;99.90;;;;;;5025036;28;20056;-68
2022/12/05 05:07:27;;;;;;;28.50;11.07;;;2.60;99.90;;;;;;5022958;28;20049;-68
2022/12/05 05:09:54;;;;;;;25.50;10.25;;;2.60;99.90;;;;;;5035182;28;20825;-67
2022/12/05 05:12:20;;;;;;;29.08;11.15;;;2.70;99.90;;;;;;5022486;28;20037;-67
2022/12/05 05:14:45;;;;;;;32.95;11.45;;;2.70;99.90;;;;;;5027700;28;20640;-66
2022/12/05 05:17:11;;;;;;;27.85;10.35;;;2.60;99.90;;;;;;5040559;28;20642;-67
2022/12/05 05:19:37;;;;;;;31.85;11.13;;;2.70;99.90;;;;;;5039939;28;20040;-67
2022/12/05 05:22:02;;;;;;;27.50;10.75;;;2.70;99.90;;;;;;5046894;28;20057;-68
2022/12/05 05:24:28;;;;;;;26.90;10.65;;;2.70;99.90;;;;;;5042774;28;20033;-68
2022/12/05 05:26:53;;;;;;;30.08;10.90;;;2.70;99.90;;;;;;5036906;28;20490;-67
2022/12/05 05:29:20;;;;;;;29.25;10.75;;;2.60;99.90;;;;;;5045970;28;20090;-68
2022/12/05 05:31:45;;;;;;;29.98;11.85;;;2.60;99.90;;;;;;5037950;28;20029;-68
2022/12/05 05:34:14;;;;;;;32.78;11.10;;;2.60;99.90;;;;;;5048327;28;20474;-68
2022/12/05 05:36:41;;;;;;;36.10;12.73;;;2.60;99.90;;;;;;5047470;28;20029;-67
2022/12/05 05:39:13;;;;;;;31.92;11.02;;;2.60;99.90;;;;;;5031299;28;20072;-67
2022/12/05 05:41:40;;;;;;;34.22;12.95;;;2.70;99.90;;;;;;5026856;28;20083;-67
2022/12/05 05:44:06;;;;;;;37.97;14.45;;;2.70;99.90;;;;;;5028183;28;20033;-68
2022/12/05 05:46:33;;;;;;;40.00;14.93;;;2.70;99.90;;;;;;5031622;28;20540;-67
2022/12/05 05:48:59;;;;;;;36.67;14.30;;;2.60;99.90;;;;;;5048059;28;20469;-67
2022/12/05 05:51:28;;;;;;;35.50;13.95;;;2.70;99.90;;;;;;5047983;28;20083;-66
2022/12/05 05:53:54;;;;;;;33.33;12.48;;;2.70;99.90;;;;;;5045191;28;20033;-68
2022/12/05 05:56:20;;;;;;;32.95;12.77;;;2.70;99.90;;;;;;5037279;28;20026;-68
2022/12/05 05:58:47;;;;;;;31.95;12.05;;;2.70;99.90;;;;;;5035592;28;20703;-67
2022/12/05 06:01:21;;;;;;;31.63;12.23;;;2.70;99.90;;;;;;5043070;28;20030;-67
2022/12/05 06:03:49;;;;;;;34.65;12.00;;;2.70;99.90;;;;;;5026415;28;20536;-67
2022/12/05 06:06:15;;;;;;;28.30;11.13;;;2.70;99.90;;;;;;5031580;28;20038;-69
2022/12/05 06:08:42;;;;;;;28.70;10.98;;;2.70;99.90;;;;;;5026028;28;20038;-67
2022/12/05 06:11:16;;;;;;;29.23;11.20;;;2.70;99.90;;;;;;5030528;28;20064;-66
2022/12/05 06:13:42;;;;;;;27.17;10.77;;;2.80;99.90;;;;;;5027547;28;20386;-66
2022/12/05 06:16:10;;;;;;;33.22;12.38;;;2.80;99.90;;;;;;5030550;28;20040;-66
2022/12/05 06:18:36;;;;;;;29.35;11.57;;;2.80;99.90;;;;;;5028755;28;20121;-67
2022/12/05 06:21:04;;;;;;;31.45;11.55;;;2.90;99.90;;;;;;5031421;28;20104;-66
2022/12/05 06:23:30;;;;;;;32.35;13.02;;;2.90;99.90;;;;;;5030024;28;20041;-69
2022/12/05 06:25:56;;;;;;;41.28;14.38;;;2.90;99.90;;;;;;5032146;28;20032;-66
2022/12/05 06:28:25;;;;;;;36.05;13.60;;;2.90;99.90;;;;;;5031306;28;20034;-68
2022/12/05 06:30:51;;;;;;;32.05;13.38;;;2.90;99.90;;;;;;5028869;28;20052;-68
2022/12/05 06:33:18;;;;;;;34.72;12.35;;;2.90;99.90;;;;;;5026737;28;20029;-68
2022/12/05 06:35:45;;;;;;;34.28;12.85;;;2.80;99.90;;;;;;5031646;28;20039;-67
2022/12/05 06:38:10;;;;;;;36.25;14.13;;;2.80;99.90;;;;;;5012761;28;20030;-68
2022/12/05 06:40:43;;;;;;;34.78;13.88;;;2.80;99.90;;;;;;5018359;28;20083;-66
2022/12/05 06:43:09;;;;;;;31.33;12.68;;;2.80;99.90;;;;;;5029200;28;20390;-67
2022/12/05 06:45:38;;;;;;;30.23;11.90;;;2.80;99.90;;;;;;5029441;28;20040;-68
2022/12/05 06:48:04;;;;;;;34.33;12.82;;;2.80;99.90;;;;;;5034136;28;20029;-66
2022/12/05 06:50:29;;;;;;;35.13;12.82;;;2.90;99.90;;;;;;5041837;28;20037;-67
2022/12/05 06:52:55;;;;;;;52.47;19.75;;;2.90;99.90;;;;;;5028927;28;20029;-67
2022/12/05 06:55:21;;;;;;;43.72;17.92;;;2.90;99.90;;;;;;5030180;28;20049;-67
2022/12/05 06:57:46;;;;;;;31.27;12.98;;;2.80;99.90;;;;;;5048967;28;20033;-67
2022/12/05 07:02:57;;;;;;;31.35;12.23;;;2.90;99.90;;;;;;5034829;28;20048;-67
2022/12/05 07:05:22;;;;;;;34.42;12.07;;;2.90;99.90;;;;;;5038384;28;20390;-65
2022/12/05 07:07:48;;;;;;;41.55;15.70;;;3.00;99.90;;;;;;5042834;28;20044;-67
2022/12/05 07:10:14;;;;;;;46.75;17.77;;;3.00;99.90;;;;;;5048679;28;20021;-67
2022/12/05 07:12:39;;;;;;;46.65;16.58;;;3.00;99.90;;;;;;5027748;28;20033;-68
2022/12/05 07:15:05;;;;;;;40.78;14.32;;;2.90;99.90;;;;;;5028744;28;20083;-68
2022/12/05 07:17:35;;;;;;;37.63;13.88;;;2.90;99.90;;;;;;5026317;28;20765;-69
2022/12/05 07:20:01;;;;;;;40.30;15.00;;;3.00;99.90;;;;;;5028548;28;20057;-68
2022/12/05 07:22:27;;;;;;;38.22;14.23;;;3.00;99.90;;;;;;5028433;28;20330;-68
2022/12/05 07:24:53;;;;;;;39.13;13.85;;;3.00;99.90;;;;;;5028235;28;20682;-67
2022/12/05 07:27:19;;;;;;;36.03;13.40;;;2.90;99.90;;;;;;5038946;28;20569;-67
2022/12/05 07:29:44;;;;;;;37.30;13.25;;;2.90;99.90;;;;;;5035116;28;20561;-67
2022/12/05 07:32:10;;;;;;;34.47;13.20;;;2.90;99.90;;;;;;5030505;28;20057;-67
2022/12/05 07:34:37;;;;;;;35.92;13.88;;;2.90;99.90;;;;;;5027202;28;20047;-69
2022/12/05 07:37:03;;;;;;;33.10;12.20;;;2.90;99.90;;;;;;5028167;28;20048;-67
2022/12/05 07:39:29;;;;;;;30.80;11.85;;;3.00;99.90;;;;;;5030254;28;20108;-67
2022/12/05 07:41:55;;;;;;;32.80;11.75;;;3.00;99.90;;;;;;5027751;28;20136;-69
2022/12/05 07:44:20;;;;;;;31.90;12.57;;;3.00;99.90;;;;;;5035786;28;20061;-67
2022/12/05 07:46:46;;;;;;;28.77;11.70;;;3.10;99.90;;;;;;5048925;28;20090;-67
2022/12/05 07:49:12;;;;;;;31.50;11.85;;;3.10;99.90;;;;;;5049782;28;20040;-67
2022/12/05 07:51:37;;;;;;;35.78;13.25;;;3.10;99.90;;;;;;5049066;28;20029;-68
2022/12/05 07:54:03;;;;;;;34.53;12.93;;;3.10;99.90;;;;;;5049910;28;20543;-68
2022/12/05 07:56:29;;;;;;;34.85;12.75;;;3.20;99.90;;;;;;5049528;28;20090;-67
2022/12/05 07:58:55;;;;;;;31.38;12.02;;;3.20;99.90;;;;;;5045967;28;20040;-68
2022/12/05 08:01:23;;;;;;;35.40;13.82;;;3.30;99.90;;;;;;5040932;28;20029;-68
2022/12/05 08:03:50;;;;;;;43.65;17.83;;;3.30;99.90;;;;;;5040459;28;20041;-67
2022/12/05 08:06:19;;;;;;;49.20;18.73;;;3.20;99.90;;;;;;5048165;28;20025;-67
2022/12/05 08:08:48;;;;;;;46.47;17.88;;;3.20;99.90;;;;;;5049162;28;20037;-68
2022/12/05 08:11:26;;;;;;;42.20;15.98;;;3.20;99.90;;;;;;5033435;28;20044;-67
2022/12/05 08:13:52;;;;;;;38.88;16.95;;;3.30;99.90;;;;;;5045537;28;20600;-67
2022/12/05 08:16:21;;;;;;;51.00;20.55;;;3.40;99.90;;;;;;5049248;28;20044;-67
2022/12/05 08:18:47;;;;;;;47.45;20.27;;;3.40;99.90;;;;;;5032503;28;20033;-67
2022/12/05 08:21:18;;;;;;;44.58;18.48;;;3.40;99.90;;;;;;5025258;28;20103;-67
2022/12/05 08:23:45;;;;;;;39.60;16.20;;;3.40;99.90;;;;;;5038642;28;20044;-67
2022/12/05 08:26:16;;;;;;;39.35;16.52;;;3.50;99.90;;;;;;5039319;28;20034;-66
2022/12/05 08:28:43;;;;;;;29.10;12.05;;;3.60;99.90;;;;;;5031593;28;20033;-67
2022/12/05 08:31:15;;;;;;;35.58;13.55;;;3.60;99.90;;;;;;5027359;28;20466;-65
2022/12/05 08:33:42;;;;;;;41.90;15.70;;;3.60;99.90;;;;;;5034878;28;20118;-67
2022/12/05 08:36:11;;;;;;;39.50;16.48;;;3.60;99.90;;;;;;5033165;28;20057;-67
2022/12/05 08:38:37;;;;;;;38.65;15.45;;;3.60;99.90;;;;;;5027526;28;20033;-68
2022/12/05 08:41:06;;;;;;;36.35;13.77;;;3.60;99.90;;;;;;5028723;28;20052;-68
2022/12/05 08:43:32;;;;;;;34.85;14.93;;;3.60;99.90;;;;;;5028461;28;20568;-66
2022/12/05 08:45:59;;;;;;;37.65;15.60;;;3.70;99.90;;;;;;5034159;28;20084;-68
2022/12/05 08:48:26;;;;;;;35.35;13.23;;;3.70;99.90;;;;;;5034167;28;20390;-67
2022/12/05 08:50:52;;;;;;;37.20;15.05;;;3.70;99.90;;;;;;5045157;28;20032;-68
2022/12/05 08:53:18;;;;;;;38.08;15.73;;;3.70;99.90;;;;;;5043511;28;20099;-68
2022/12/05 08:55:44;;;;;;;39.00;15.65;;;3.70;99.90;;;;;;5045701;28;20414;-68
2022/12/05 08:58:11;;;;;;;33.70;14.07;;;3.80;99.90;;;;;;5048793;28;20104;-67
2022/12/05 09:00:36;;;;;;;32.13;13.07;;;3.80;99.90;;;;;;5047198;28;20029;-68
2022/12/05 09:03:03;;;;;;;33.67;13.40;;;3.80;99.90;;;;;;5047771;28;20492;-67
2022/12/05 09:05:28;;;;;;;34.53;13.68;;;3.80;99.90;;;;;;5048547;28;20056;-68
2022/12/05 09:07:54;;;;;;;34.63;13.80;;;3.80;99.90;;;;;;5047841;28;20837;-68
2022/12/05 09:10:20;;;;;;;40.85;15.65;;;3.90;99.90;;;;;;5045980;28;20060;-68
2022/12/05 09:12:46;;;;;;;39.53;15.55;;;3.90;99.90;;;;;;5047702;28;20041;-68
2022/12/05 09:15:12;;;;;;;34.40;14.05;;;3.90;99.90;;;;;;5048405;28;20056;-68
2022/12/05 09:17:38;;;;;;;38.38;15.23;;;3.90;99.90;;;;;;5048272;28;20137;-68
2022/12/05 09:20:07;;;;;;;37.28;16.00;;;3.90;99.90;;;;;;5047803;28;20047;-68
2022/12/05 09:22:33;;;;;;;36.75;14.88;;;3.90;99.90;;;;;;5048202;28;20444;-68
2022/12/05 09:25:02;;;;;;;33.95;14.45;;;4.00;99.90;;;;;;5032929;28;20033;-68
2022/12/05 09:27:28;;;;;;;34.60;14.88;;;4.00;99.90;;;;;;5028769;28;20080;-68
2022/12/05 09:29:53;;;;;;;36.92;14.05;;;4.10;99.90;;;;;;5027820;28;20067;-68
2022/12/05 09:32:19;;;;;;;32.15;12.95;;;4.10;99.90;;;;;;5028264;28;20140;-67
2022/12/05 09:34:45;;;;;;;29.35;12.48;;;4.10;99.90;;;;;;5027705;28;20037;-68
2022/12/05 09:37:10;;;;;;;30.45;12.82;;;4.00;99.90;;;;;;5028503;28;20075;-68
2022/12/05 09:39:36;;;;;;;30.52;12.57;;;4.00;99.90;;;;;;5027461;28;20029;-68
2022/12/05 09:42:22;;;;;;;30.05;11.90;;;4.10;99.90;;;;;;5027575;28;20462;-68
2022/12/05 09:45:10;;;;;;;32.20;12.80;;;4.10;99.90;;;;;;5029861;28;20551;-68
2022/12/05 09:47:55;;;;;;;28.27;11.90;;;4.10;99.90;;;;;;5032370;28;20116;-68
2022/12/05 09:50:45;;;;;;;28.80;11.63;;;4.10;99.90;;;;;;5032350;28;20113;-67
2022/12/05 09:53:32;;;;;;;30.08;12.02;;;4.10;99.90;;;;;;5033815;28;20029;-68
2022/12/05 09:56:05;;;;;;;30.83;11.60;;;4.20;99.90;;;;;;5051429;28;20028;-68
2022/12/05 09:58:43;;;;;;;29.95;12.68;;;4.20;99.90;;;;;;5052030;28;20378;-68
2022/12/05 10:01:30;;;;;;;35.83;14.13;;;4.20;99.90;;;;;;5052013;28;20040;-68
2022/12/05 10:04:11;;;;;;;33.83;13.10;;;4.30;99.90;;;;;;5048737;28;20055;-67
2022/12/05 10:06:49;;;;;;;33.65;13.20;;;4.30;99.90;;;;;;5051983;28;20060;-68
2022/12/05 10:09:51;;;;;;;32.80;13.65;;;4.40;99.90;;;;;;5052044;28;20647;-68
2022/12/05 10:12:55;;;;;;;27.95;12.32;;;4.40;99.90;;;;;;5051829;28;20029;-68
2022/12/05 10:15:40;;;;;;;28.15;11.55;;;4.40;99.90;;;;;;5051880;28;20422;-68
2022/12/05 10:18:24;;;;;;;32.63;12.98;;;4.40;99.90;;;;;;5045397;28;20034;-67
2022/12/05 10:21:08;;;;;;;30.63;12.02;;;4.50;99.90;;;;;;5030824;28;20022;-67
2022/12/05 10:24:02;;;;;;;30.83;12.60;;;4.50;99.90;;;;;;5031516;28;20049;-68
2022/12/05 10:26:44;;;;;;;28.92;12.23;;;4.50;99.90;;;;;;5030002;28;20088;-67
2022/12/05 10:29:28;;;;;;;30.48;12.50;;;4.50;99.90;;;;;;5031751;28;20029;-68
2022/12/05 10:32:13;;;;;;;26.42;11.80;;;4.50;99.90;;;;;;5030601;28;20592;-68
2022/12/05 10:34:44;;;;;;;28.25;11.55;;;4.50;99.90;;;;;;5030598;28;20029;-67
2022/12/05 10:37:13;;;;;;;27.90;11.75;;;4.60;99.90;;;;;;5031104;28;20040;-68
2022/12/05 10:39:39;;;;;;;26.52;11.45;;;4.60;99.90;;;;;;5031434;28;20456;-68
2022/12/05 10:42:08;;;;;;;29.95;11.88;;;4.60;99.90;;;;;;5030379;28;20032;-68
2022/12/05 10:44:34;;;;;;;30.15;12.70;;;4.60;99.90;;;;;;5029983;28;20363;-68
2022/12/05 10:47:00;;;;;;;32.17;13.38;;;4.60;99.90;;;;;;5030541;28;20035;-68
2022/12/05 10:49:26;;;;;;;24.77;11.75;;;4.70;99.90;;;;;;5030380;28;20171;-68
2022/12/05 10:51:52;;;;;;;29.25;11.90;;;4.60;99.90;;;;;;5030175;28;20041;-69
2022/12/05 10:54:25;;;;;;;28.70;11.32;;;4.60;99.90;;;;;;5031058;28;20068;-68
2022/12/05 10:56:52;;;;;;;28.33;11.77;;;4.60;99.90;;;;;;5029027;28;20146;-65
2022/12/05 10:59:42;;;;;;;25.00;11.55;;;4.60;99.90;;;;;;5030965;28;20048;-69
2022/12/05 11:02:28;;;;;;;29.15;11.93;;;4.60;99.90;;;;;;5031206;28;20170;-68
2022/12/05 11:04:55;;;;;;;29.17;12.18;;;4.50;99.90;;;;;;5050156;28;20033;-68
2022/12/05 11:07:34;;;;;;;29.13;12.35;;;4.50;99.90;;;;;;5051078;28;20029;-69
2022/12/05 11:10:03;;;;;;;29.10;13.05;;;4.60;99.90;;;;;;5050103;28;20029;-67
2022/12/05 11:12:36;;;;;;;27.40;11.52;;;4.60;99.90;;;;;;5050663;28;20041;-68
2022/12/05 11:15:21;;;;;;;30.33;12.52;;;4.60;99.90;;;;;;5048926;28;20032;-68
2022/12/05 11:17:47;;;;;;;27.05;11.88;;;4.60;99.90;;;;;;5050382;28;20067;-68
2022/12/05 11:20:19;;;;;;;26.00;11.23;;;4.60;99.90;;;;;;5050129;28;20032;-67
2022/12/05 11:22:53;;;;;;;28.50;11.35;;;4.70;99.90;;;;;;5046102;28;20690;-68
2022/12/05 11:25:28;;;;;;;27.45;11.82;;;4.70;99.90;;;;;;5030890;28;20129;-68
2022/12/05 11:27:56;;;;;;;31.50;11.30;;;4.80;99.90;;;;;;5034589;28;20039;-68
2022/12/05 11:30:26;;;;;;;37.90;11.93;;;4.80;99.90;;;;;;5047933;28;20079;-68
2022/12/05 11:33:23;;;;;;;28.60;11.52;;;4.80;99.90;;;;;;5049267;28;20473;-68
2022/12/05 11:35:52;;;;;;;23.65;10.65;;;4.80;99.90;;;;;;5049790;28;20381;-68
2022/12/05 11:38:22;;;;;;;22.98;10.65;;;4.80;99.90;;;;;;5046977;28;20421;-69
2022/12/05 11:41:00;;;;;;;24.75;10.18;;;4.80;99.90;;;;;;5029605;28;20456;-69
2022/12/05 11:44:08;;;;;;;25.50;9.95;;;4.80;99.90;;;;;;5030122;28;20038;-68
2022/12/05 11:46:55;;;;;;;21.95;9.65;;;4.80;99.90;;;;;;5024882;28;20041;-68
2022/12/05 11:49:43;;;;;;;24.00;10.93;;;4.90;99.90;;;;;;5040832;28;20808;-68
2022/12/05 11:52:32;;;;;;;24.23;10.13;;;4.90;99.90;;;;;;5049008;28;20184;-68
2022/12/05 11:55:15;;;;;;;22.42;9.98;;;4.90;99.90;;;;;;5049068;28;20029;-68
2022/12/05 11:57:50;;;;;;;21.33;9.88;;;4.90;99.90;;;;;;5049935;28;20029;-68
2022/12/05 12:00:22;;;;;;;20.23;8.60;;;4.80;99.90;;;;;;5049760;28;20029;-68
2022/12/05 12:02:50;;;;;;;18.42;8.48;;;4.90;99.90;;;;;;5047396;28;20734;-70
2022/12/05 12:05:43;;;;;;;18.60;7.90;;;4.90;99.90;;;;;;5049837;28;20037;-68
2022/12/05 12:08:26;;;;;;;15.80;7.50;;;4.90;99.90;;;;;;5048109;28;20055;-68
2022/12/05 12:11:09;;;;;;;15.60;6.80;;;4.90;99.90;;;;;;5048651;28;20044;-69
2022/12/05 12:13:47;;;;;;;17.95;7.80;;;4.90;99.90;;;;;;5049469;28;20053;-68
2022/12/05 12:16:33;;;;;;;20.23;7.78;;;4.90;99.90;;;;;;5048610;28;20029;-68
2022/12/05 12:19:18;;;;;;;17.23;7.85;;;5.00;99.90;;;;;;5034370;28;20033;-68
2022/12/05 12:22:17;;;;;;;18.63;8.35;;;5.10;99.90;;;;;;5028930;28;20486;-68
2022/12/05 12:24:52;;;;;;;23.55;7.80;;;5.10;99.90;;;;;;5029385;28;20041;-67
2022/12/05 12:27:35;;;;;;;16.42;7.40;;;5.00;99.90;;;;;;5029406;28;20034;-67
2022/12/05 12:30:15;;;;;;;17.67;7.03;;;5.00;99.90;;;;;;5027266;28;20481;-68
2022/12/05 12:32:59;;;;;;;;;;;4.90;99.90;;;;;;5028932;28;20041;-68
2022/12/05 12:35:36;;;;;;;14.63;7.07;;;5.00;99.90;;;;;;5029444;28;19916;-69
2022/12/05 12:38:41;;;;;;;17.42;7.35;;;5.00;99.90;;;;;;5028724;28;20021;-68
2022/12/05 12:41:20;;;;;;;15.55;7.55;;;5.00;99.90;;;;;;5028263;28;20112;-68
2022/12/05 12:44:21;;;;;;;17.63;8.13;;;5.00;99.90;;;;;;5027885;28;20029;-68
2022/12/05 12:46:51;;;;;;;;;;;5.00;99.90;;;;;;5012626;28;20042;-69
2022/12/05 12:49:51;;;;;;;16.67;6.85;;;5.00;99.90;;;;;;5009008;28;19909;-69
2022/12/05 12:52:22;;;;;;;18.02;7.57;;;5.00;99.90;;;;;;5007182;28;20439;-68
2022/12/05 12:55:18;;;;;;;18.70;7.95;;;5.10;99.90;;;;;;5009221;28;20462;-68
2022/12/05 12:57:55;;;;;;;19.35;8.02;;;5.10;99.90;;;;;;5009322;28;20036;-68
2022/12/05 13:00:42;;;;;;;19.67;7.60;;;5.10;99.90;;;;;;5025519;28;20033;-69
2022/12/05 13:03:10;;;;;;;17.25;7.47;;;5.10;99.90;;;;;;5028072;28;20038;-68
2022/12/05 13:05:45;;;;;;;19.80;8.48;;;5.10;99.90;;;;;;5028699;28;20041;-69
2022/12/05 13:08:39;;;;;;;18.77;7.75;;;5.10;99.90;;;;;;5036404;28;20271;-69
2022/12/05 13:11:08;;;;;;;17.10;7.68;;;5.20;99.90;;;;;;5007320;28;20053;-68
2022/12/05 13:13:39;;;;;;;15.13;7.47;;;5.20;99.90;;;;;;5009038;28;20115;-67